createdAt,value
2023-05-21T00:00:27.472Z,100671.78
2023-05-21T00:02:53.965Z,100663.25
2023-05-21T00:05:21.432Z,100670.22
2023-05-21T00:07:47.921Z,100666.91
2023-05-21T00:10:14.419Z,100662.63
2023-05-21T00:12:41.927Z,100666.81
2023-05-21T00:15:09.321Z,100660.72
2023-05-21T00:17:36.903Z,100654.84
2023-05-21T00:20:08.753Z,100659.25
2023-05-21T00:22:36.790Z,100661.03
2023-05-21T00:25:04.208Z,100660.28
2023-05-21T00:27:30.753Z,100658.47
2023-05-21T00:29:57.581Z,100644.47
2023-05-21T00:32:24.066Z,100648.66
2023-05-21T00:34:50.796Z,100647.00
2023-05-21T00:37:17.257Z,100644.47
2023-05-21T00:39:43.680Z,100643.47
2023-05-21T00:42:10.403Z,100645.19
2023-05-21T00:44:36.844Z,100644.97
2023-05-21T00:47:03.660Z,100635.31
2023-05-21T00:49:31.489Z,100630.81
2023-05-21T00:52:01.381Z,100633.28
2023-05-21T00:54:28.159Z,100636.97
2023-05-21T00:56:55.028Z,100642.06
2023-05-21T00:59:21.619Z,100639.34
2023-05-21T01:01:53.978Z,100631.47
2023-05-21T01:04:20.606Z,100637.56
2023-05-21T01:06:47.030Z,100632.47
2023-05-21T01:09:13.559Z,100638.47
2023-05-21T01:11:43.370Z,100640.94
2023-05-21T01:14:12.653Z,100632.28
2023-05-21T01:16:42.161Z,100636.66
2023-05-21T01:19:14.064Z,100630.56
2023-05-21T01:21:44.793Z,100639.25
2023-05-21T01:24:11.233Z,100637.56
2023-05-21T01:26:38.816Z,100639.34
2023-05-21T01:29:06.576Z,100633.28
2023-05-21T01:31:53.211Z,100624.69
2023-05-21T01:34:23.987Z,100626.78
2023-05-21T01:36:59.432Z,100618.69
2023-05-21T01:39:37.103Z,100620.59
2023-05-21T01:42:05.921Z,100625.41
2023-05-21T01:44:33.938Z,100617.63
2023-05-21T01:47:00.663Z,100620.91
2023-05-21T01:49:27.262Z,100609.63
2023-05-21T01:51:53.999Z,100621.72
2023-05-21T01:54:21.980Z,100602.66
2023-05-21T01:56:49.717Z,100609.53
2023-05-21T01:59:17.269Z,100606.03
2023-05-21T02:01:43.869Z,100604.34
2023-05-21T02:04:10.422Z,100606.72
2023-05-21T02:06:39.395Z,100607.50
2023-05-21T02:09:05.946Z,100609.13
2023-05-21T02:11:32.409Z,100613.06
2023-05-21T02:13:58.839Z,100613.94
2023-05-21T02:16:25.639Z,100616.53
2023-05-21T02:18:52.254Z,100612.38
2023-05-21T02:21:20.606Z,100609.13
2023-05-21T02:23:47.062Z,100610.78
2023-05-21T02:26:13.503Z,100610.78
2023-05-21T02:28:40.531Z,100611.78
2023-05-21T02:31:07.015Z,100626.81
2023-05-21T02:33:33.508Z,100624.81
2023-05-21T02:36:00.053Z,100621.63
2023-05-21T02:38:26.613Z,100611.28
2023-05-21T02:40:53.197Z,100603.72
2023-05-21T02:43:19.790Z,100613.28
2023-05-21T02:45:46.508Z,100611.28
2023-05-21T02:48:12.990Z,100607.00
2023-05-21T02:50:39.548Z,100603.72
2023-05-21T02:53:06.326Z,100597.50
2023-05-21T02:55:32.792Z,100586.25
2023-05-21T02:57:59.304Z,100587.16
2023-05-21T03:00:26.117Z,100589.66
2023-05-21T03:02:52.733Z,100580.97
2023-05-21T03:05:19.395Z,100574.00
2023-05-21T03:07:45.858Z,100583.22
2023-05-21T03:10:12.308Z,100583.34
2023-05-21T03:12:39.272Z,100574.56
2023-05-21T03:15:06.174Z,100575.59
2023-05-21T03:17:32.702Z,100570.41
2023-05-21T03:19:59.171Z,100572.66
2023-05-21T03:22:25.682Z,100572.47
2023-05-21T03:24:53.330Z,100564.38
2023-05-21T03:27:19.837Z,100566.16
2023-05-21T03:29:46.313Z,100561.78
2023-05-21T03:32:13.498Z,100563.38
2023-05-21T03:34:40.077Z,100565.59
2023-05-21T03:37:06.559Z,100563.00
2023-05-21T03:39:33.032Z,100561.56
2023-05-21T03:41:59.507Z,100563.56
2023-05-21T03:44:26.076Z,100563.78
2023-05-21T03:46:52.510Z,100563.19
2023-05-21T03:49:20.523Z,100569.19
2023-05-21T03:51:46.970Z,100565.59
2023-05-21T03:54:13.513Z,100566.38
2023-05-21T03:56:40.032Z,100566.38
2023-05-21T03:59:06.489Z,100572.47
2023-05-21T04:01:33.314Z,100570.78
2023-05-21T04:03:59.971Z,100574.13
2023-05-21T04:06:26.549Z,100570.56
2023-05-21T04:08:53.044Z,100575.84
2023-05-21T04:11:19.579Z,100573.38
2023-05-21T04:13:46.206Z,100581.00
2023-05-21T04:16:14.763Z,100573.03
2023-05-21T04:18:43.558Z,100573.81
2023-05-21T04:21:12.151Z,100579.81
2023-05-21T04:23:38.631Z,100582.97
2023-05-21T04:26:05.128Z,100586.44
2023-05-21T04:28:31.649Z,100579.81
2023-05-21T04:30:58.656Z,100584.28
2023-05-21T04:33:25.641Z,100589.47
2023-05-21T04:35:52.302Z,100585.41
2023-05-21T04:38:19.885Z,100584.50
2023-05-21T04:40:52.254Z,100590.81
2023-05-21T04:43:25.662Z,100588.09
2023-05-21T04:45:55.354Z,100593.19
2023-05-21T04:48:24.626Z,100593.28
2023-05-21T04:50:52.011Z,100597.44
2023-05-21T04:53:18.541Z,100600.03
2023-05-21T04:55:45.077Z,100596.69
2023-05-21T04:58:11.591Z,100604.56
2023-05-21T05:00:39.257Z,100602.06
2023-05-21T05:03:06.204Z,100607.47
2023-05-21T05:05:32.695Z,100606.47
2023-05-21T05:07:59.220Z,100602.75
2023-05-21T05:10:25.693Z,100604.66
2023-05-21T05:12:52.097Z,100596.00
2023-05-21T05:15:18.678Z,100598.09
2023-05-21T05:17:45.238Z,100585.38
2023-05-21T05:20:11.846Z,100588.97
2023-05-21T05:22:38.344Z,100588.03
2023-05-21T05:25:06.302Z,100580.50
2023-05-21T05:27:32.743Z,100584.00
2023-05-21T05:29:59.219Z,100584.00
2023-05-21T05:32:25.742Z,100583.41
2023-05-21T05:34:52.226Z,100581.91
2023-05-21T05:37:18.705Z,100575.84
2023-05-21T05:39:45.163Z,100576.72
2023-05-21T05:42:11.678Z,100581.25
2023-05-21T05:44:38.205Z,100568.50
2023-05-21T05:47:09.112Z,100567.69
2023-05-21T05:49:36.321Z,100573.09
2023-05-21T05:52:03.090Z,100572.09
2023-05-21T05:54:29.611Z,100578.28
2023-05-21T05:56:56.026Z,100575.56
2023-05-21T05:59:22.504Z,100573.88
2023-05-21T06:01:48.943Z,100576.69
2023-05-21T06:04:15.502Z,100569.81
2023-05-21T06:06:42.069Z,100572.72
2023-05-21T06:09:08.534Z,100572.84
2023-05-21T06:11:35.134Z,100566.66
2023-05-21T06:14:01.945Z,100570.31
2023-05-21T06:16:31.521Z,100570.13
2023-05-21T06:18:58.259Z,100566.66
2023-05-21T06:21:24.812Z,100568.75
2023-05-21T06:23:51.444Z,100567.34
2023-05-21T06:26:19.430Z,100572.75
2023-05-21T06:28:45.929Z,100568.78
2023-05-21T06:31:12.391Z,100570.66
2023-05-21T06:33:39.067Z,100570.09
2023-05-21T06:36:05.975Z,100570.28
2023-05-21T06:38:32.396Z,100565.22
2023-05-21T06:40:58.836Z,100580.97
2023-05-21T06:43:25.379Z,100578.78
2023-05-21T06:45:51.935Z,100574.69
2023-05-21T06:48:18.479Z,100574.78
2023-05-21T06:50:44.929Z,100571.19
2023-05-21T06:53:11.401Z,100569.59
2023-05-21T06:55:38.032Z,100574.31
2023-05-21T06:58:04.636Z,100571.63
2023-05-21T07:00:31.325Z,100574.22
2023-05-21T07:02:57.897Z,100576.28
2023-05-21T07:05:24.414Z,100585.78
2023-05-21T07:07:51.005Z,100572.81
2023-05-21T07:10:17.671Z,100583.19
2023-05-21T07:12:44.145Z,100586.59
2023-05-21T07:15:11.118Z,100601.34
2023-05-21T07:17:37.962Z,100602.22
2023-05-21T07:20:09.616Z,100603.16
2023-05-21T07:22:38.560Z,100599.75
2023-05-21T07:25:06.191Z,100595.84
2023-05-21T07:27:32.672Z,100593.19
2023-05-21T07:29:59.131Z,100599.94
2023-05-21T07:32:26.844Z,100602.53
2023-05-21T07:34:54.426Z,100600.16
2023-05-21T07:37:21.443Z,100604.44
2023-05-21T07:39:47.941Z,100608.75
2023-05-21T07:42:14.390Z,100620.00
2023-05-21T07:44:40.870Z,100622.59
2023-05-21T07:47:07.421Z,100627.97
2023-05-21T07:49:33.936Z,100629.00
2023-05-21T07:52:00.603Z,100624.09
2023-05-21T07:54:27.068Z,100626.69
2023-05-21T07:56:53.546Z,100610.81
2023-05-21T07:59:19.996Z,100609.25
2023-05-21T08:01:46.447Z,100611.94
2023-05-21T08:04:13.073Z,100602.53
2023-05-21T08:06:39.620Z,100608.72
2023-05-21T08:09:06.818Z,100604.47
2023-05-21T08:11:33.313Z,100613.91
2023-05-21T08:13:59.970Z,100608.03
2023-05-21T08:16:26.892Z,100614.38
2023-05-21T08:18:53.636Z,100620.66
2023-05-21T08:21:20.190Z,100618.16
2023-05-21T08:23:46.654Z,100613.25
2023-05-21T08:26:13.222Z,100615.56
2023-05-21T08:28:39.778Z,100615.09
2023-05-21T08:31:06.401Z,100616.16
2023-05-21T08:33:37.092Z,100615.69
2023-05-21T08:36:07.398Z,100614.56
2023-05-21T08:38:37.062Z,100609.66
2023-05-21T08:41:06.916Z,100611.84
2023-05-21T08:43:34.405Z,100612.63
2023-05-21T08:46:04.044Z,100604.72
2023-05-21T08:48:31.438Z,100609.41
2023-05-21T08:51:00.415Z,100617.38
2023-05-21T08:53:30.066Z,100614.28
2023-05-21T08:55:57.496Z,100621.03
2023-05-21T08:58:27.661Z,100623.41
2023-05-21T09:00:56.049Z,100628.41
2023-05-21T09:03:24.530Z,100621.88
2023-05-21T09:05:51.954Z,100621.72
2023-05-21T09:08:21.776Z,100617.44
2023-05-21T09:10:50.571Z,100622.19
2023-05-21T09:13:18.792Z,100624.44
2023-05-21T09:15:51.457Z,100622.47
2023-05-21T09:18:17.985Z,100629.28
2023-05-21T09:20:45.326Z,100623.00
2023-05-21T09:23:16.491Z,100622.63
2023-05-21T09:25:47.493Z,100629.97
2023-05-21T09:28:15.794Z,100629.59
2023-05-21T09:30:49.598Z,100624.75
2023-05-21T09:33:26.704Z,100621.28
2023-05-21T09:35:53.327Z,100614.38
2023-05-21T09:38:22.463Z,100623.84
2023-05-21T09:40:48.934Z,100617.53
2023-05-21T09:43:16.336Z,100621.28
2023-05-21T09:46:09.835Z,100620.44
2023-05-21T09:48:37.083Z,100625.63
2023-05-21T09:51:16.608Z,100619.72
2023-05-21T09:53:59.894Z,100616.28
2023-05-21T09:56:35.793Z,100622.59
2023-05-21T09:59:04.444Z,100621.72
2023-05-21T10:01:34.059Z,100622.63
2023-05-21T10:04:07.893Z,100622.97
2023-05-21T10:06:38.276Z,100618.66
2023-05-21T10:09:09.963Z,100615.16
2023-05-21T10:11:37.331Z,100626.41
2023-05-21T10:14:07.652Z,100626.41
2023-05-21T10:16:36.251Z,100623.97
2023-05-21T10:19:04.825Z,100624.75
2023-05-21T10:21:33.360Z,100622.16
2023-05-21T10:24:02.183Z,100617.09
2023-05-21T10:26:30.010Z,100622.91
2023-05-21T10:29:00.122Z,100613.44
2023-05-21T10:31:27.784Z,100613.53
2023-05-21T10:33:57.471Z,100616.75
2023-05-21T10:36:25.563Z,100611.31
2023-05-21T10:38:52.106Z,100614.13
2023-05-21T10:41:21.839Z,100621.03
2023-05-21T10:44:02.553Z,100609.03
2023-05-21T10:46:51.039Z,100618.63
2023-05-21T10:49:34.022Z,100606.78
2023-05-21T10:52:40.367Z,100600.03
2023-05-21T10:55:26.368Z,100600.72
2023-05-21T10:58:16.885Z,100597.44
2023-05-21T11:00:44.058Z,100594.75
2023-05-21T11:03:14.030Z,100596.09
2023-05-21T11:05:55.418Z,100585.84
2023-05-21T11:08:26.901Z,100587.53
2023-05-21T11:11:01.656Z,100590.31
2023-05-21T11:13:32.583Z,100577.91
2023-05-21T11:15:59.248Z,100579.69
2023-05-21T11:18:38.373Z,100580.56
2023-05-21T11:21:06.572Z,100577.22
2023-05-21T11:23:56.660Z,100570.78
2023-05-21T11:26:29.323Z,100575.72
2023-05-21T11:29:04.989Z,100577.31
2023-05-21T11:31:41.055Z,100577.09
2023-05-21T11:34:14.476Z,100572.47
2023-05-21T11:36:43.800Z,100574.06
2023-05-21T11:39:28.206Z,100569.00
2023-05-21T11:42:04.354Z,100566.47
2023-05-21T11:44:44.935Z,100562.34
2023-05-21T11:47:15.038Z,100560.34
2023-05-21T11:49:42.447Z,100562.56
2023-05-21T11:52:17.289Z,100561.19
2023-05-21T11:54:50.493Z,100557.34
2023-05-21T11:57:19.277Z,100563.72
2023-05-21T11:59:46.887Z,100564.69
2023-05-21T12:02:20.800Z,100564.97
2023-05-21T12:04:48.891Z,100560.03
2023-05-21T12:07:19.107Z,100555.13
2023-05-21T12:09:50.439Z,100552.81
2023-05-21T12:12:19.182Z,100552.75
2023-05-21T12:14:47.802Z,100553.78
2023-05-21T12:17:19.293Z,100550.13
2023-05-21T12:19:47.102Z,100548.59
2023-05-21T12:22:16.468Z,100547.88
2023-05-21T12:24:44.108Z,100546.84
2023-05-21T12:27:13.278Z,100542.19
2023-05-21T12:29:42.423Z,100540.91
2023-05-21T12:32:13.767Z,100540.41
2023-05-21T12:34:54.926Z,100536.00
2023-05-21T12:37:24.119Z,100535.03
2023-05-21T12:39:52.375Z,100542.53
2023-05-21T12:42:30.652Z,100544.53
2023-05-21T12:44:58.232Z,100545.31
2023-05-21T12:47:26.953Z,100542.16
2023-05-21T12:49:57.829Z,100541.38
2023-05-21T12:52:25.413Z,100541.31
2023-05-21T12:54:54.671Z,100540.41
2023-05-21T12:57:23.928Z,100534.00
2023-05-21T12:59:51.708Z,100529.66
2023-05-21T13:02:22.738Z,100530.72
2023-05-21T13:04:54.805Z,100524.41
2023-05-21T13:07:21.395Z,100522.41
2023-05-21T13:09:48.997Z,100530.44
2023-05-21T13:12:15.650Z,100523.53
2023-05-21T13:14:42.190Z,100526.81
2023-05-21T13:17:08.768Z,100526.31
2023-05-21T13:19:36.518Z,100519.16
2023-05-21T13:22:03.629Z,100517.91
2023-05-21T13:24:30.101Z,100518.09
2023-05-21T13:26:56.843Z,100521.38
2023-05-21T13:29:23.563Z,100513.69
2023-05-21T13:31:50.093Z,100511.72
2023-05-21T13:34:16.739Z,100512.66
2023-05-21T13:36:43.300Z,100506.28
2023-05-21T13:39:09.780Z,100510.78
2023-05-21T13:41:36.420Z,100504.84
2023-05-21T13:44:02.955Z,100509.41
2023-05-21T13:46:29.781Z,100508.69
2023-05-21T13:48:56.505Z,100503.25
2023-05-21T13:51:37.365Z,100500.47
2023-05-21T13:54:04.955Z,100497.41
2023-05-21T13:56:33.340Z,100506.00
2023-05-21T13:59:00.157Z,100498.81
2023-05-21T14:01:26.969Z,100495.19
2023-05-21T14:03:53.467Z,100487.56
2023-05-21T14:06:20.085Z,100495.75
2023-05-21T14:08:46.667Z,100496.72
2023-05-21T14:11:13.124Z,100494.47
2023-05-21T14:13:39.686Z,100492.94
2023-05-21T14:16:06.848Z,100491.03
2023-05-21T14:18:33.549Z,100494.91
2023-05-21T14:21:00.083Z,100486.50
2023-05-21T14:23:26.592Z,100495.53
2023-05-21T14:25:53.124Z,100496.41
2023-05-21T14:28:19.647Z,100486.13
2023-05-21T14:30:46.176Z,100482.41
2023-05-21T14:33:13.359Z,100490.06
2023-05-21T14:35:41.424Z,100486.75
2023-05-21T14:38:07.925Z,100482.25
2023-05-21T14:40:34.423Z,100486.28
2023-05-21T14:43:01.028Z,100482.16
2023-05-21T14:45:27.541Z,100477.09
2023-05-21T14:47:54.072Z,100477.78
2023-05-21T14:50:20.550Z,100473.69
2023-05-21T14:52:47.166Z,100469.28
2023-05-21T14:55:16.366Z,100473.66
2023-05-21T14:57:42.825Z,100476.94
2023-05-21T15:00:11.535Z,100472.00
2023-05-21T15:02:38.306Z,100465.06
2023-05-21T15:05:05.247Z,100464.50
2023-05-21T15:07:31.793Z,100469.88
2023-05-21T15:09:58.263Z,100469.75
2023-05-21T15:12:24.855Z,100462.72
2023-05-21T15:14:51.484Z,100469.59
2023-05-21T15:17:17.973Z,100469.00
2023-05-21T15:19:44.859Z,100473.88
2023-05-21T15:22:11.303Z,100480.09
2023-05-21T15:24:37.848Z,100468.81
2023-05-21T15:27:04.714Z,100466.00
2023-05-21T15:29:31.783Z,100475.66
2023-05-21T15:31:58.528Z,100475.16
2023-05-21T15:34:25.225Z,100475.28
2023-05-21T15:36:51.843Z,100472.50
2023-05-21T15:39:18.358Z,100471.44
2023-05-21T15:41:44.813Z,100481.63
2023-05-21T15:44:11.459Z,100479.56
2023-05-21T15:46:37.912Z,100476.22
2023-05-21T15:49:04.475Z,100484.81
2023-05-21T15:51:31.216Z,100482.94
2023-05-21T15:53:57.799Z,100473.13
2023-05-21T15:56:24.485Z,100479.09
2023-05-21T15:58:51.104Z,100473.56
2023-05-21T16:01:18.327Z,100464.44
2023-05-21T16:03:44.872Z,100458.25
2023-05-21T16:06:21.031Z,100463.28
2023-05-21T16:08:48.355Z,100463.50
2023-05-21T16:11:15.494Z,100464.31
2023-05-21T16:13:42.038Z,100458.03
2023-05-21T16:16:08.686Z,100455.19
2023-05-21T16:18:35.212Z,100460.97
2023-05-21T16:21:01.764Z,100456.47
2023-05-21T16:23:28.875Z,100462.81
2023-05-21T16:25:55.488Z,100460.25
2023-05-21T16:28:34.037Z,100456.88
2023-05-21T16:31:02.583Z,100458.66
2023-05-21T16:33:29.349Z,100454.03
2023-05-21T16:35:55.937Z,100463.59
2023-05-21T16:38:22.781Z,100457.56
2023-05-21T16:40:49.451Z,100454.09
2023-05-21T16:43:16.474Z,100447.25
2023-05-21T16:45:46.807Z,100447.41
2023-05-21T16:48:13.501Z,100447.56
2023-05-21T16:50:40.751Z,100450.91
2023-05-21T16:53:08.597Z,100445.44
2023-05-21T16:55:36.940Z,100442.59
2023-05-21T16:58:05.678Z,100449.50
2023-05-21T17:00:32.862Z,100449.06
2023-05-21T17:02:59.562Z,100444.25
2023-05-21T17:05:26.462Z,100440.44
2023-05-21T17:07:53.168Z,100435.00
2023-05-21T17:10:19.707Z,100439.19
2023-05-21T17:12:46.286Z,100431.94
2023-05-21T17:15:13.276Z,100432.59
2023-05-21T17:17:41.625Z,100420.97
2023-05-21T17:20:09.119Z,100420.75
2023-05-21T17:22:35.708Z,100426.53
2023-05-21T17:25:02.632Z,100425.31
2023-05-21T17:27:29.272Z,100422.41
2023-05-21T17:29:56.069Z,100420.44
2023-05-21T17:32:23.333Z,100422.16
2023-05-21T17:34:49.862Z,100427.47
2023-05-21T17:37:16.601Z,100432.72
2023-05-21T17:39:46.150Z,100440.59
2023-05-21T17:42:12.650Z,100438.06
2023-05-21T17:44:39.300Z,100439.84
2023-05-21T17:47:06.910Z,100439.00
2023-05-21T17:49:33.559Z,100434.72
2023-05-21T17:52:03.849Z,100445.09
2023-05-21T17:54:31.404Z,100452.75
2023-05-21T17:56:57.965Z,100456.09
2023-05-21T17:59:29.409Z,100448.13
2023-05-21T18:02:02.768Z,100462.06
2023-05-21T18:04:34.325Z,100448.81
2023-05-21T18:07:02.479Z,100455.69
2023-05-21T18:09:30.854Z,100462.50
2023-05-21T18:11:59.821Z,100462.47
2023-05-21T18:14:34.157Z,100458.03
2023-05-21T18:17:02.426Z,100461.34
2023-05-21T18:19:32.030Z,100452.53
2023-05-21T18:21:58.698Z,100459.44
2023-05-21T18:24:30.016Z,100464.63
2023-05-21T18:26:56.793Z,100458.34
2023-05-21T18:29:23.294Z,100461.53
2023-05-21T18:31:53.634Z,100467.44
2023-05-21T18:34:33.060Z,100468.03
2023-05-21T18:37:01.644Z,100475.69
2023-05-21T18:39:31.914Z,100472.97
2023-05-21T18:42:12.058Z,100490.22
2023-05-21T18:44:42.177Z,100492.66
2023-05-21T18:47:08.761Z,100490.91
2023-05-21T18:49:38.934Z,100499.53
2023-05-21T18:52:07.226Z,100500.22
2023-05-21T18:54:33.915Z,100494.78
2023-05-21T18:57:00.964Z,100505.97
2023-05-21T18:59:29.196Z,100509.22
2023-05-21T19:01:55.965Z,100506.31
2023-05-21T19:04:22.534Z,100493.94
2023-05-21T19:06:54.511Z,100502.50
2023-05-21T19:09:34.488Z,100502.31
2023-05-21T19:12:04.765Z,100504.72
2023-05-21T19:14:31.499Z,100502.75
2023-05-21T19:16:58.041Z,100508.56
2023-05-21T19:19:24.536Z,100520.66
2023-05-21T19:21:52.793Z,100522.25
2023-05-21T19:24:19.292Z,100516.88
2023-05-21T19:26:45.731Z,100519.44
2023-05-21T19:29:12.274Z,100529.81
2023-05-21T19:31:39.219Z,100533.19
2023-05-21T19:34:10.444Z,100531.22
2023-05-21T19:36:51.450Z,100543.31
2023-05-21T19:39:19.789Z,100543.19
2023-05-21T19:41:46.319Z,100554.41
2023-05-21T19:44:12.782Z,100551.69
2023-05-21T19:46:39.294Z,100555.16
2023-05-21T19:49:05.835Z,100559.41
2023-05-21T19:51:32.338Z,100563.50
2023-05-21T19:53:58.754Z,100564.22
2023-05-21T19:56:25.601Z,100563.22
2023-05-21T19:58:52.059Z,100563.03
2023-05-21T20:01:18.694Z,100563.66
2023-05-21T20:03:45.517Z,100568.59
2023-05-21T20:06:12.280Z,100560.47
2023-05-21T20:08:38.988Z,100566.13
2023-05-21T20:11:05.526Z,100570.63
2023-05-21T20:13:32.055Z,100568.81
2023-05-21T20:15:58.598Z,100575.66
2023-05-21T20:18:25.070Z,100573.91
2023-05-21T20:20:51.601Z,100573.91
2023-05-21T20:23:18.021Z,100578.72
2023-05-21T20:25:44.459Z,100572.47
2023-05-21T20:28:11.025Z,100566.25
2023-05-21T20:30:53.510Z,100571.63
2023-05-21T20:33:20.518Z,100570.97
2023-05-21T20:35:47.045Z,100571.06
2023-05-21T20:38:15.941Z,100568.22
2023-05-21T20:40:44.149Z,100567.91
2023-05-21T20:43:18.540Z,100568.31
2023-05-21T20:45:49.842Z,100577.63
2023-05-21T20:48:16.666Z,100569.56
2023-05-21T20:50:44.249Z,100575.28
2023-05-21T20:53:12.048Z,100577.56
2023-05-21T20:55:38.594Z,100578.97
2023-05-21T20:58:05.645Z,100574.63
2023-05-21T21:00:33.392Z,100579.84
2023-05-21T21:03:01.239Z,100585.75
2023-05-21T21:05:28.294Z,100584.91
2023-05-21T21:07:55.958Z,100584.91
2023-05-21T21:10:22.764Z,100590.00
2023-05-21T21:12:49.225Z,100593.97
2023-05-21T21:15:15.818Z,100595.69
2023-05-21T21:17:42.279Z,100594.97
2023-05-21T21:20:10.614Z,100600.19
2023-05-21T21:22:37.166Z,100603.53
2023-05-21T21:25:04.012Z,100605.16
2023-05-21T21:27:30.468Z,100606.94
2023-05-21T21:29:56.998Z,100618.44
2023-05-21T21:32:23.621Z,100614.84
2023-05-21T21:34:50.045Z,100611.00
2023-05-21T21:37:16.846Z,100613.44
2023-05-21T21:39:43.297Z,100612.25
2023-05-21T21:42:09.888Z,100605.13
2023-05-21T21:44:36.375Z,100605.00
2023-05-21T21:47:02.809Z,100608.41
2023-05-21T21:49:29.338Z,100600.34
2023-05-21T21:51:57.817Z,100608.75
2023-05-21T21:54:24.645Z,100608.25
2023-05-21T21:56:51.768Z,100614.81
2023-05-21T21:59:18.803Z,100621.97
2023-05-21T22:01:45.386Z,100616.66
2023-05-21T22:04:11.928Z,100613.16
2023-05-21T22:06:39.116Z,100618.38
2023-05-21T22:09:06.608Z,100617.47
2023-05-21T22:11:33.105Z,100621.38
2023-05-21T22:14:00.372Z,100615.25
2023-05-21T22:16:28.188Z,100616.25
2023-05-21T22:18:54.751Z,100621.63
2023-05-21T22:21:21.540Z,100620.63
2023-05-21T22:23:48.015Z,100633.13
2023-05-21T22:26:14.449Z,100625.31
2023-05-21T22:28:40.956Z,100617.09
2023-05-21T22:31:07.901Z,100627.06
2023-05-21T22:33:34.481Z,100619.88
2023-05-21T22:36:00.985Z,100626.88
2023-05-21T22:38:27.662Z,100625.34
2023-05-21T22:40:54.496Z,100621.06
2023-05-21T22:43:21.000Z,100627.69
2023-05-21T22:45:47.450Z,100631.72
2023-05-21T22:48:14.341Z,100623.81
2023-05-21T22:50:41.016Z,100632.16
2023-05-21T22:53:07.685Z,100630.78
2023-05-21T22:55:34.108Z,100629.84
2023-05-21T22:58:00.572Z,100627.03
2023-05-21T23:00:27.562Z,100628.19
2023-05-21T23:02:54.802Z,100627.31
2023-05-21T23:05:21.602Z,100629.84
2023-05-21T23:07:48.065Z,100630.63
2023-05-21T23:10:14.566Z,100629.84
2023-05-21T23:12:41.297Z,100630.09
2023-05-21T23:15:09.762Z,100635.03
2023-05-21T23:17:37.207Z,100639.34
2023-05-21T23:20:04.044Z,100639.69
2023-05-21T23:22:30.599Z,100645.31
2023-05-21T23:24:57.202Z,100648.59
2023-05-21T23:27:23.969Z,100643.72
2023-05-21T23:29:50.438Z,100644.53
2023-05-21T23:32:17.153Z,100648.47
2023-05-21T23:34:43.654Z,100643.91
2023-05-21T23:37:10.160Z,100649.91
2023-05-21T23:39:36.734Z,100650.59
2023-05-21T23:42:03.509Z,100656.00
2023-05-21T23:44:29.979Z,100660.41
2023-05-21T23:46:56.432Z,100651.34
2023-05-21T23:49:22.851Z,100648.47
2023-05-21T23:51:52.274Z,100656.34
2023-05-21T23:54:18.778Z,100641.97
2023-05-21T23:56:45.720Z,100644.78
2023-05-21T23:59:12.157Z,100641.28
